sensor_id;sensor_type;location;lat;lon;timestamp;P1;durP1;ratioP1;P2;durP2;ratioP2
64615;SDS011;51027;42.162;24.754;2023-04-25T00:01:38;8.82;;;2.92;;
64615;SDS011;51027;42.162;24.754;2023-04-25T00:04:03;9.05;;;3.13;;
64615;SDS011;51027;42.162;24.754;2023-04-25T00:06:31;10.07;;;3.28;;
64615;SDS011;51027;42.162;24.754;2023-04-25T00:09:01;8.43;;;2.92;;
64615;SDS011;51027;42.162;24.754;2023-04-25T00:11:28;10.90;;;2.90;;
64615;SDS011;51027;42.162;24.754;2023-04-25T00:13:55;8.23;;;2.97;;
64615;SDS011;51027;42.162;24.754;2023-04-25T00:16:22;9.88;;;3.00;;
64615;SDS011;51027;42.162;24.754;2023-04-25T00:18:48;10.45;;;3.50;;
64615;SDS011;51027;42.162;24.754;2023-04-25T00:21:16;10.57;;;3.35;;
64615;SDS011;51027;42.162;24.754;2023-04-25T00:23:43;9.05;;;3.28;;
64615;SDS011;51027;42.162;24.754;2023-04-25T00:26:08;7.50;;;2.92;;
64615;SDS011;51027;42.162;24.754;2023-04-25T00:28:34;10.77;;;3.33;;
64615;SDS011;51027;42.162;24.754;2023-04-25T00:30:59;12.05;;;3.50;;
64615;SDS011;51027;42.162;24.754;2023-04-25T00:33:25;10.73;;;3.28;;
64615;SDS011;51027;42.162;24.754;2023-04-25T00:35:50;10.95;;;3.47;;
64615;SDS011;51027;42.162;24.754;2023-04-25T00:38:16;11.65;;;3.33;;
64615;SDS011;51027;42.162;24.754;2023-04-25T00:40:41;9.57;;;3.30;;
64615;SDS011;51027;42.162;24.754;2023-04-25T00:43:08;9.02;;;3.28;;
64615;SDS011;51027;42.162;24.754;2023-04-25T00:45:34;10.70;;;3.13;;
64615;SDS011;51027;42.162;24.754;2023-04-25T00:48:04;11.65;;;3.55;;
64615;SDS011;51027;42.162;24.754;2023-04-25T00:50:30;12.00;;;3.40;;
64615;SDS011;51027;42.162;24.754;2023-04-25T00:52:55;7.72;;;3.20;;
64615;SDS011;51027;42.162;24.754;2023-04-25T00:55:21;12.00;;;4.65;;
64615;SDS011;51027;42.162;24.754;2023-04-25T00:57:46;8.98;;;3.40;;
64615;SDS011;51027;42.162;24.754;2023-04-25T01:00:12;10.45;;;3.20;;
64615;SDS011;51027;42.162;24.754;2023-04-25T01:02:39;11.23;;;3.60;;
64615;SDS011;51027;42.162;24.754;2023-04-25T01:05:07;10.43;;;3.60;;
64615;SDS011;51027;42.162;24.754;2023-04-25T01:07:32;10.20;;;3.45;;
64615;SDS011;51027;42.162;24.754;2023-04-25T01:09:58;10.25;;;3.40;;
64615;SDS011;51027;42.162;24.754;2023-04-25T01:12:24;12.05;;;3.72;;
64615;SDS011;51027;42.162;24.754;2023-04-25T01:14:50;12.55;;;3.75;;
64615;SDS011;51027;42.162;24.754;2023-04-25T01:17:15;10.50;;;4.00;;
64615;SDS011;51027;42.162;24.754;2023-04-25T01:19:42;13.25;;;3.70;;
64615;SDS011;51027;42.162;24.754;2023-04-25T01:22:08;11.63;;;4.05;;
64615;SDS011;51027;42.162;24.754;2023-04-25T01:24:35;12.23;;;3.88;;
64615;SDS011;51027;42.162;24.754;2023-04-25T01:27:01;11.30;;;4.10;;
64615;SDS011;51027;42.162;24.754;2023-04-25T01:29:27;11.88;;;4.10;;
64615;SDS011;51027;42.162;24.754;2023-04-25T01:31:54;12.48;;;4.28;;
64615;SDS011;51027;42.162;24.754;2023-04-25T01:34:20;11.70;;;3.63;;
64615;SDS011;51027;42.162;24.754;2023-04-25T01:36:47;10.70;;;3.70;;
64615;SDS011;51027;42.162;24.754;2023-04-25T01:39:15;11.40;;;3.75;;
64615;SDS011;51027;42.162;24.754;2023-04-25T01:41:40;11.55;;;4.10;;
64615;SDS011;51027;42.162;24.754;2023-04-25T01:44:06;12.23;;;4.03;;
64615;SDS011;51027;42.162;24.754;2023-04-25T01:46:32;12.05;;;4.15;;
64615;SDS011;51027;42.162;24.754;2023-04-25T01:48:58;12.43;;;4.32;;
64615;SDS011;51027;42.162;24.754;2023-04-25T01:51:24;12.80;;;4.55;;
64615;SDS011;51027;42.162;24.754;2023-04-25T01:53:50;12.75;;;4.45;;
64615;SDS011;51027;42.162;24.754;2023-04-25T01:56:15;12.25;;;4.20;;
64615;SDS011;51027;42.162;24.754;2023-04-25T01:58:42;13.35;;;4.88;;
64615;SDS011;51027;42.162;24.754;2023-04-25T02:01:08;14.02;;;4.47;;
64615;SDS011;51027;42.162;24.754;2023-04-25T02:03:34;12.38;;;4.40;;
64615;SDS011;51027;42.162;24.754;2023-04-25T02:05:59;13.40;;;4.40;;
64615;SDS011;51027;42.162;24.754;2023-04-25T02:08:25;13.30;;;4.57;;
64615;SDS011;51027;42.162;24.754;2023-04-25T02:10:51;13.45;;;4.18;;
64615;SDS011;51027;42.162;24.754;2023-04-25T02:13:17;12.65;;;4.15;;
64615;SDS011;51027;42.162;24.754;2023-04-25T02:15:42;11.15;;;3.50;;
64615;SDS011;51027;42.162;24.754;2023-04-25T02:18:08;10.63;;;3.70;;
64615;SDS011;51027;42.162;24.754;2023-04-25T02:20:35;12.05;;;4.15;;
64615;SDS011;51027;42.162;24.754;2023-04-25T02:23:01;11.80;;;3.72;;
64615;SDS011;51027;42.162;24.754;2023-04-25T02:25:27;11.95;;;4.07;;
64615;SDS011;51027;42.162;24.754;2023-04-25T02:27:52;11.93;;;3.63;;
64615;SDS011;51027;42.162;24.754;2023-04-25T02:30:18;12.68;;;3.72;;
64615;SDS011;51027;42.162;24.754;2023-04-25T02:32:44;11.63;;;3.60;;
64615;SDS011;51027;42.162;24.754;2023-04-25T02:35:10;13.68;;;4.05;;
64615;SDS011;51027;42.162;24.754;2023-04-25T02:37:38;13.10;;;4.18;;
64615;SDS011;51027;42.162;24.754;2023-04-25T02:40:04;12.30;;;4.60;;
64615;SDS011;51027;42.162;24.754;2023-04-25T02:42:31;14.55;;;4.57;;
64615;SDS011;51027;42.162;24.754;2023-04-25T02:44:57;14.93;;;4.72;;
64615;SDS011;51027;42.162;24.754;2023-04-25T02:47:22;15.00;;;5.57;;
64615;SDS011;51027;42.162;24.754;2023-04-25T02:49:48;14.70;;;5.60;;
64615;SDS011;51027;42.162;24.754;2023-04-25T02:52:13;16.00;;;5.70;;
64615;SDS011;51027;42.162;24.754;2023-04-25T02:54:40;16.45;;;5.53;;
64615;SDS011;51027;42.162;24.754;2023-04-25T02:57:05;15.77;;;6.03;;
64615;SDS011;51027;42.162;24.754;2023-04-25T02:59:31;16.85;;;6.18;;
64615;SDS011;51027;42.162;24.754;2023-04-25T03:01:57;16.75;;;6.32;;
64615;SDS011;51027;42.162;24.754;2023-04-25T03:04:22;17.73;;;6.32;;
64615;SDS011;51027;42.162;24.754;2023-04-25T03:06:49;17.05;;;6.65;;
64615;SDS011;51027;42.162;24.754;2023-04-25T03:09:17;17.83;;;6.20;;
64615;SDS011;51027;42.162;24.754;2023-04-25T03:11:43;16.63;;;6.38;;
64615;SDS011;51027;42.162;24.754;2023-04-25T03:14:09;15.25;;;5.57;;
64615;SDS011;51027;42.162;24.754;2023-04-25T03:16:35;16.60;;;5.10;;
64615;SDS011;51027;42.162;24.754;2023-04-25T03:19:00;16.27;;;4.93;;
64615;SDS011;51027;42.162;24.754;2023-04-25T03:21:25;16.23;;;6.10;;
64615;SDS011;51027;42.162;24.754;2023-04-25T03:23:51;15.65;;;5.63;;
64615;SDS011;51027;42.162;24.754;2023-04-25T03:26:17;16.10;;;6.00;;
64615;SDS011;51027;42.162;24.754;2023-04-25T03:28:42;18.48;;;5.97;;
64615;SDS011;51027;42.162;24.754;2023-04-25T03:31:07;15.35;;;4.85;;
64615;SDS011;51027;42.162;24.754;2023-04-25T03:33:33;15.77;;;5.43;;
64615;SDS011;51027;42.162;24.754;2023-04-25T03:35:58;15.88;;;5.47;;
64615;SDS011;51027;42.162;24.754;2023-04-25T03:38:24;16.85;;;5.32;;
64615;SDS011;51027;42.162;24.754;2023-04-25T03:40:50;14.45;;;4.57;;
64615;SDS011;51027;42.162;24.754;2023-04-25T03:43:16;15.75;;;5.78;;
64615;SDS011;51027;42.162;24.754;2023-04-25T03:45:41;14.52;;;4.80;;
64615;SDS011;51027;42.162;24.754;2023-04-25T03:48:07;15.05;;;4.65;;
64615;SDS011;51027;42.162;24.754;2023-04-25T03:50:32;14.35;;;4.85;;
64615;SDS011;51027;42.162;24.754;2023-04-25T03:52:58;14.27;;;4.93;;
64615;SDS011;51027;42.162;24.754;2023-04-25T03:55:23;16.75;;;5.65;;
64615;SDS011;51027;42.162;24.754;2023-04-25T03:57:48;14.10;;;5.20;;
64615;SDS011;51027;42.162;24.754;2023-04-25T04:00:14;16.00;;;5.55;;
64615;SDS011;51027;42.162;24.754;2023-04-25T04:02:40;15.25;;;5.20;;
64615;SDS011;51027;42.162;24.754;2023-04-25T04:05:06;16.50;;;5.72;;
64615;SDS011;51027;42.162;24.754;2023-04-25T04:07:32;14.73;;;4.93;;
64615;SDS011;51027;42.162;24.754;2023-04-25T04:09:58;21.38;;;9.70;;
64615;SDS011;51027;42.162;24.754;2023-04-25T04:12:24;15.88;;;5.50;;
64615;SDS011;51027;42.162;24.754;2023-04-25T04:14:49;17.10;;;5.75;;
64615;SDS011;51027;42.162;24.754;2023-04-25T04:17:15;14.82;;;5.10;;
64615;SDS011;51027;42.162;24.754;2023-04-25T04:19:40;15.93;;;6.30;;
64615;SDS011;51027;42.162;24.754;2023-04-25T04:22:06;16.40;;;6.15;;
64615;SDS011;51027;42.162;24.754;2023-04-25T04:24:31;16.52;;;5.60;;
64615;SDS011;51027;42.162;24.754;2023-04-25T04:26:57;16.48;;;6.15;;
64615;SDS011;51027;42.162;24.754;2023-04-25T04:29:23;16.48;;;5.90;;
64615;SDS011;51027;42.162;24.754;2023-04-25T04:31:49;16.38;;;6.18;;
64615;SDS011;51027;42.162;24.754;2023-04-25T04:34:18;16.17;;;5.65;;
64615;SDS011;51027;42.162;24.754;2023-04-25T04:36:44;16.05;;;5.80;;
64615;SDS011;51027;42.162;24.754;2023-04-25T04:39:12;16.17;;;5.75;;
64615;SDS011;51027;42.162;24.754;2023-04-25T04:41:38;18.63;;;6.00;;
64615;SDS011;51027;42.162;24.754;2023-04-25T04:44:04;16.33;;;6.22;;
64615;SDS011;51027;42.162;24.754;2023-04-25T04:46:31;18.13;;;6.18;;
64615;SDS011;51027;42.162;24.754;2023-04-25T04:49:02;15.73;;;5.72;;
64615;SDS011;51027;42.162;24.754;2023-04-25T04:51:29;17.35;;;6.30;;
64615;SDS011;51027;42.162;24.754;2023-04-25T04:53:56;17.13;;;6.30;;
64615;SDS011;51027;42.162;24.754;2023-04-25T04:56:23;16.02;;;6.00;;
64615;SDS011;51027;42.162;24.754;2023-04-25T04:58:50;17.88;;;6.78;;
64615;SDS011;51027;42.162;24.754;2023-04-25T05:01:16;17.77;;;6.80;;
64615;SDS011;51027;42.162;24.754;2023-04-25T05:03:41;18.33;;;6.93;;
64615;SDS011;51027;42.162;24.754;2023-04-25T05:06:06;18.42;;;6.93;;
64615;SDS011;51027;42.162;24.754;2023-04-25T05:08:33;16.77;;;6.70;;
64615;SDS011;51027;42.162;24.754;2023-04-25T05:10:59;17.55;;;6.85;;
64615;SDS011;51027;42.162;24.754;2023-04-25T05:13:24;22.45;;;7.13;;
64615;SDS011;51027;42.162;24.754;2023-04-25T05:15:50;18.65;;;7.35;;
64615;SDS011;51027;42.162;24.754;2023-04-25T05:18:15;18.08;;;7.30;;
64615;SDS011;51027;42.162;24.754;2023-04-25T05:20:41;19.17;;;7.32;;
64615;SDS011;51027;42.162;24.754;2023-04-25T05:23:06;18.63;;;7.03;;
64615;SDS011;51027;42.162;24.754;2023-04-25T05:25:32;18.08;;;7.75;;
64615;SDS011;51027;42.162;24.754;2023-04-25T05:27:57;17.75;;;7.10;;
64615;SDS011;51027;42.162;24.754;2023-04-25T05:30:23;17.55;;;7.15;;
64615;SDS011;51027;42.162;24.754;2023-04-25T05:32:48;18.45;;;7.60;;
64615;SDS011;51027;42.162;24.754;2023-04-25T05:35:14;22.00;;;10.15;;
64615;SDS011;51027;42.162;24.754;2023-04-25T05:37:39;19.10;;;8.05;;
64615;SDS011;51027;42.162;24.754;2023-04-25T05:40:05;21.52;;;8.25;;
64615;SDS011;51027;42.162;24.754;2023-04-25T05:42:32;17.15;;;7.35;;
64615;SDS011;51027;42.162;24.754;2023-04-25T05:44:57;20.38;;;8.48;;
64615;SDS011;51027;42.162;24.754;2023-04-25T05:47:23;20.15;;;8.63;;
64615;SDS011;51027;42.162;24.754;2023-04-25T05:49:48;19.08;;;7.95;;
64615;SDS011;51027;42.162;24.754;2023-04-25T05:52:13;19.60;;;8.20;;
64615;SDS011;51027;42.162;24.754;2023-04-25T05:54:40;19.95;;;8.10;;
64615;SDS011;51027;42.162;24.754;2023-04-25T05:57:05;19.88;;;8.05;;
64615;SDS011;51027;42.162;24.754;2023-04-25T05:59:31;21.25;;;7.78;;
64615;SDS011;51027;42.162;24.754;2023-04-25T06:01:57;19.85;;;7.85;;
64615;SDS011;51027;42.162;24.754;2023-04-25T06:04:22;25.83;;;11.70;;
64615;SDS011;51027;42.162;24.754;2023-04-25T06:06:48;28.92;;;11.85;;
64615;SDS011;51027;42.162;24.754;2023-04-25T06:09:13;25.83;;;11.77;;
64615;SDS011;51027;42.162;24.754;2023-04-25T06:11:38;23.10;;;9.50;;
64615;SDS011;51027;42.162;24.754;2023-04-25T06:14:05;22.05;;;8.45;;
64615;SDS011;51027;42.162;24.754;2023-04-25T06:16:30;17.05;;;6.68;;
64615;SDS011;51027;42.162;24.754;2023-04-25T06:18:56;17.92;;;6.90;;
64615;SDS011;51027;42.162;24.754;2023-04-25T06:21:21;18.02;;;6.63;;
64615;SDS011;51027;42.162;24.754;2023-04-25T06:23:46;18.65;;;7.05;;
64615;SDS011;51027;42.162;24.754;2023-04-25T06:26:12;17.17;;;6.55;;
64615;SDS011;51027;42.162;24.754;2023-04-25T06:28:37;17.60;;;6.95;;
64615;SDS011;51027;42.162;24.754;2023-04-25T06:31:03;23.70;;;9.82;;
64615;SDS011;51027;42.162;24.754;2023-04-25T06:33:28;19.70;;;7.95;;
64615;SDS011;51027;42.162;24.754;2023-04-25T06:35:54;20.27;;;8.98;;
64615;SDS011;51027;42.162;24.754;2023-04-25T06:38:19;19.80;;;8.00;;
64615;SDS011;51027;42.162;24.754;2023-04-25T06:40:45;22.50;;;9.88;;
64615;SDS011;51027;42.162;24.754;2023-04-25T06:43:10;19.70;;;7.55;;
64615;SDS011;51027;42.162;24.754;2023-04-25T06:45:36;19.52;;;7.10;;
64615;SDS011;51027;42.162;24.754;2023-04-25T06:48:01;17.95;;;7.57;;
64615;SDS011;51027;42.162;24.754;2023-04-25T06:50:26;17.33;;;7.15;;
64615;SDS011;51027;42.162;24.754;2023-04-25T06:52:52;17.58;;;7.03;;
64615;SDS011;51027;42.162;24.754;2023-04-25T06:55:17;18.52;;;7.72;;
64615;SDS011;51027;42.162;24.754;2023-04-25T06:57:43;17.02;;;6.90;;
64615;SDS011;51027;42.162;24.754;2023-04-25T07:00:08;16.92;;;6.80;;
64615;SDS011;51027;42.162;24.754;2023-04-25T07:02:34;17.63;;;7.60;;
64615;SDS011;51027;42.162;24.754;2023-04-25T07:05:01;18.48;;;7.45;;
64615;SDS011;51027;42.162;24.754;2023-04-25T07:07:29;16.33;;;6.85;;
64615;SDS011;51027;42.162;24.754;2023-04-25T07:09:55;19.73;;;7.20;;
64615;SDS011;51027;42.162;24.754;2023-04-25T07:12:21;17.35;;;7.00;;
64615;SDS011;51027;42.162;24.754;2023-04-25T07:14:46;17.75;;;7.15;;
64615;SDS011;51027;42.162;24.754;2023-04-25T07:17:12;16.63;;;6.40;;
64615;SDS011;51027;42.162;24.754;2023-04-25T07:19:37;15.38;;;6.68;;
64615;SDS011;51027;42.162;24.754;2023-04-25T07:22:05;17.10;;;6.93;;
64615;SDS011;51027;42.162;24.754;2023-04-25T07:24:31;17.85;;;7.45;;
64615;SDS011;51027;42.162;24.754;2023-04-25T07:26:56;17.05;;;6.43;;
64615;SDS011;51027;42.162;24.754;2023-04-25T07:29:23;16.20;;;6.18;;
64615;SDS011;51027;42.162;24.754;2023-04-25T07:31:48;18.33;;;7.90;;
64615;SDS011;51027;42.162;24.754;2023-04-25T07:34:14;17.40;;;7.25;;
64615;SDS011;51027;42.162;24.754;2023-04-25T07:36:39;19.65;;;8.57;;
64615;SDS011;51027;42.162;24.754;2023-04-25T07:39:05;19.63;;;7.25;;
64615;SDS011;51027;42.162;24.754;2023-04-25T07:41:30;18.92;;;8.27;;
64615;SDS011;51027;42.162;24.754;2023-04-25T07:43:56;17.25;;;7.68;;
64615;SDS011;51027;42.162;24.754;2023-04-25T07:46:21;16.67;;;7.13;;
64615;SDS011;51027;42.162;24.754;2023-04-25T07:48:46;17.65;;;7.25;;
64615;SDS011;51027;42.162;24.754;2023-04-25T07:51:12;16.20;;;6.85;;
64615;SDS011;51027;42.162;24.754;2023-04-25T07:53:37;19.00;;;6.47;;
64615;SDS011;51027;42.162;24.754;2023-04-25T07:56:03;18.38;;;6.03;;
64615;SDS011;51027;42.162;24.754;2023-04-25T07:58:28;16.55;;;6.10;;
64615;SDS011;51027;42.162;24.754;2023-04-25T08:00:54;16.42;;;5.43;;
64615;SDS011;51027;42.162;24.754;2023-04-25T08:03:19;16.55;;;6.15;;
64615;SDS011;51027;42.162;24.754;2023-04-25T08:05:46;15.13;;;6.15;;
64615;SDS011;51027;42.162;24.754;2023-04-25T08:08:11;15.23;;;5.85;;
64615;SDS011;51027;42.162;24.754;2023-04-25T08:10:37;17.15;;;6.53;;
64615;SDS011;51027;42.162;24.754;2023-04-25T08:13:02;17.88;;;6.05;;
64615;SDS011;51027;42.162;24.754;2023-04-25T08:15:28;18.08;;;7.25;;
64615;SDS011;51027;42.162;24.754;2023-04-25T08:17:53;15.45;;;5.40;;
64615;SDS011;51027;42.162;24.754;2023-04-25T08:20:18;15.75;;;5.60;;
64615;SDS011;51027;42.162;24.754;2023-04-25T08:22:44;14.45;;;5.35;;
64615;SDS011;51027;42.162;24.754;2023-04-25T08:25:09;15.07;;;5.90;;
64615;SDS011;51027;42.162;24.754;2023-04-25T08:27:35;16.38;;;6.05;;
64615;SDS011;51027;42.162;24.754;2023-04-25T08:30:01;15.75;;;5.97;;
64615;SDS011;51027;42.162;24.754;2023-04-25T08:32:28;15.98;;;6.25;;
64615;SDS011;51027;42.162;24.754;2023-04-25T08:34:53;18.50;;;5.90;;
64615;SDS011;51027;42.162;24.754;2023-04-25T08:37:20;18.23;;;5.90;;
64615;SDS011;51027;42.162;24.754;2023-04-25T08:39:46;15.25;;;5.10;;
64615;SDS011;51027;42.162;24.754;2023-04-25T08:42:13;13.40;;;5.22;;
64615;SDS011;51027;42.162;24.754;2023-04-25T08:44:40;13.63;;;4.75;;
64615;SDS011;51027;42.162;24.754;2023-04-25T08:47:05;12.15;;;4.47;;
64615;SDS011;51027;42.162;24.754;2023-04-25T08:49:32;13.32;;;4.50;;
64615;SDS011;51027;42.162;24.754;2023-04-25T08:51:59;13.25;;;4.45;;
64615;SDS011;51027;42.162;24.754;2023-04-25T08:54:26;13.10;;;4.63;;
64615;SDS011;51027;42.162;24.754;2023-04-25T08:56:54;12.55;;;4.43;;
64615;SDS011;51027;42.162;24.754;2023-04-25T08:59:19;16.52;;;5.18;;
64615;SDS011;51027;42.162;24.754;2023-04-25T09:01:48;14.88;;;5.10;;
64615;SDS011;51027;42.162;24.754;2023-04-25T09:04:15;13.90;;;4.80;;
64615;SDS011;51027;42.162;24.754;2023-04-25T09:06:40;14.23;;;4.97;;
64615;SDS011;51027;42.162;24.754;2023-04-25T09:09:07;14.57;;;5.32;;
64615;SDS011;51027;42.162;24.754;2023-04-25T09:11:34;13.98;;;5.28;;
64615;SDS011;51027;42.162;24.754;2023-04-25T09:14:16;12.98;;;4.72;;
64615;SDS011;51027;42.162;24.754;2023-04-25T09:19:28;15.50;;;4.70;;
64615;SDS011;51027;42.162;24.754;2023-04-25T09:21:56;12.95;;;4.40;;
64615;SDS011;51027;42.162;24.754;2023-04-25T09:26:57;13.15;;;4.43;;
64615;SDS011;51027;42.162;24.754;2023-04-25T09:29:30;16.30;;;6.03;;
64615;SDS011;51027;42.162;24.754;2023-04-25T09:34:48;14.80;;;5.00;;
64615;SDS011;51027;42.162;24.754;2023-04-25T09:39:47;12.65;;;4.78;;
64615;SDS011;51027;42.162;24.754;2023-04-25T09:42:15;16.15;;;5.70;;
64615;SDS011;51027;42.162;24.754;2023-04-25T09:44:44;14.73;;;5.60;;
64615;SDS011;51027;42.162;24.754;2023-04-25T09:47:15;14.50;;;5.30;;
64615;SDS011;51027;42.162;24.754;2023-04-25T09:49:43;13.95;;;5.20;;
64615;SDS011;51027;42.162;24.754;2023-04-25T09:52:09;14.40;;;5.32;;
64615;SDS011;51027;42.162;24.754;2023-04-25T09:54:39;14.35;;;5.70;;
64615;SDS011;51027;42.162;24.754;2023-04-25T09:57:12;16.95;;;5.70;;
64615;SDS011;51027;42.162;24.754;2023-04-25T09:59:42;14.52;;;5.32;;
64615;SDS011;51027;42.162;24.754;2023-04-25T10:02:09;16.00;;;5.60;;
64615;SDS011;51027;42.162;24.754;2023-04-25T10:04:36;16.40;;;5.40;;
64615;SDS011;51027;42.162;24.754;2023-04-25T10:07:03;13.68;;;4.63;;
64615;SDS011;51027;42.162;24.754;2023-04-25T10:09:32;12.38;;;4.80;;
64615;SDS011;51027;42.162;24.754;2023-04-25T10:12:00;14.20;;;4.85;;
64615;SDS011;51027;42.162;24.754;2023-04-25T10:14:28;14.57;;;4.80;;
64615;SDS011;51027;42.162;24.754;2023-04-25T10:16:55;11.73;;;4.20;;
64615;SDS011;51027;42.162;24.754;2023-04-25T10:19:23;12.00;;;4.15;;
64615;SDS011;51027;42.162;24.754;2023-04-25T10:21:54;10.68;;;4.10;;
64615;SDS011;51027;42.162;24.754;2023-04-25T10:24:20;10.77;;;3.80;;
64615;SDS011;51027;42.162;24.754;2023-04-25T10:26:47;11.40;;;4.75;;
64615;SDS011;51027;42.162;24.754;2023-04-25T10:29:15;13.60;;;4.95;;
64615;SDS011;51027;42.162;24.754;2023-04-25T10:31:48;12.40;;;4.88;;
64615;SDS011;51027;42.162;24.754;2023-04-25T10:34:14;12.20;;;4.60;;
64615;SDS011;51027;42.162;24.754;2023-04-25T10:36:41;11.52;;;4.43;;
64615;SDS011;51027;42.162;24.754;2023-04-25T10:39:07;11.48;;;3.83;;
64615;SDS011;51027;42.162;24.754;2023-04-25T10:41:46;11.20;;;4.30;;
64615;SDS011;51027;42.162;24.754;2023-04-25T10:44:13;11.13;;;4.18;;
64615;SDS011;51027;42.162;24.754;2023-04-25T10:46:39;11.95;;;4.25;;
64615;SDS011;51027;42.162;24.754;2023-04-25T10:49:05;11.18;;;4.00;;
64615;SDS011;51027;42.162;24.754;2023-04-25T10:51:33;12.40;;;4.47;;
64615;SDS011;51027;42.162;24.754;2023-04-25T10:54:04;11.40;;;4.38;;
64615;SDS011;51027;42.162;24.754;2023-04-25T10:56:31;10.93;;;3.97;;
64615;SDS011;51027;42.162;24.754;2023-04-25T10:59:17;12.80;;;4.20;;
64615;SDS011;51027;42.162;24.754;2023-04-25T11:01:44;9.35;;;3.50;;
64615;SDS011;51027;42.162;24.754;2023-04-25T11:04:23;10.98;;;3.65;;
64615;SDS011;51027;42.162;24.754;2023-04-25T11:09:20;9.43;;;3.70;;
64615;SDS011;51027;42.162;24.754;2023-04-25T11:11:56;10.50;;;4.18;;
64615;SDS011;51027;42.162;24.754;2023-04-25T11:14:25;10.65;;;3.97;;
64615;SDS011;51027;42.162;24.754;2023-04-25T11:16:55;10.70;;;4.15;;
64615;SDS011;51027;42.162;24.754;2023-04-25T11:19:22;12.55;;;4.50;;
64615;SDS011;51027;42.162;24.754;2023-04-25T11:22:01;13.40;;;4.13;;
64615;SDS011;51027;42.162;24.754;2023-04-25T11:24:27;10.98;;;3.83;;
64615;SDS011;51027;42.162;24.754;2023-04-25T11:27:03;11.50;;;4.20;;
64615;SDS011;51027;42.162;24.754;2023-04-25T11:29:31;11.20;;;3.95;;
64615;SDS011;51027;42.162;24.754;2023-04-25T11:31:58;14.10;;;4.88;;
64615;SDS011;51027;42.162;24.754;2023-04-25T11:34:25;11.10;;;4.10;;
64615;SDS011;51027;42.162;24.754;2023-04-25T11:36:51;13.52;;;4.75;;
64615;SDS011;51027;42.162;24.754;2023-04-25T11:39:18;12.85;;;4.70;;
64615;SDS011;51027;42.162;24.754;2023-04-25T11:41:44;15.25;;;4.53;;
64615;SDS011;51027;42.162;24.754;2023-04-25T11:44:09;11.98;;;4.43;;
64615;SDS011;51027;42.162;24.754;2023-04-25T11:46:35;11.73;;;4.15;;
64615;SDS011;51027;42.162;24.754;2023-04-25T11:49:00;11.77;;;4.13;;
64615;SDS011;51027;42.162;24.754;2023-04-25T11:51:26;10.75;;;3.90;;
64615;SDS011;51027;42.162;24.754;2023-04-25T11:53:52;12.30;;;4.25;;
64615;SDS011;51027;42.162;24.754;2023-04-25T11:56:17;14.40;;;4.80;;
64615;SDS011;51027;42.162;24.754;2023-04-25T11:59:05;14.00;;;4.93;;
64615;SDS011;51027;42.162;24.754;2023-04-25T12:01:31;13.77;;;5.35;;
64615;SDS011;51027;42.162;24.754;2023-04-25T12:06:59;13.52;;;4.65;;
64615;SDS011;51027;42.162;24.754;2023-04-25T12:09:30;15.10;;;4.85;;
64615;SDS011;51027;42.162;24.754;2023-04-25T12:11:57;13.30;;;4.70;;
64615;SDS011;51027;42.162;24.754;2023-04-25T12:14:25;14.93;;;5.70;;
64615;SDS011;51027;42.162;24.754;2023-04-25T12:16:52;14.75;;;5.38;;
64615;SDS011;51027;42.162;24.754;2023-04-25T12:19:19;14.15;;;5.20;;
64615;SDS011;51027;42.162;24.754;2023-04-25T12:21:46;14.30;;;4.88;;
64615;SDS011;51027;42.162;24.754;2023-04-25T12:24:22;12.93;;;4.78;;
64615;SDS011;51027;42.162;24.754;2023-04-25T12:26:58;15.02;;;5.22;;
64615;SDS011;51027;42.162;24.754;2023-04-25T12:29:32;16.00;;;5.03;;
64615;SDS011;51027;42.162;24.754;2023-04-25T12:31:58;13.50;;;4.97;;
64615;SDS011;51027;42.162;24.754;2023-04-25T12:34:24;13.25;;;4.80;;
64615;SDS011;51027;42.162;24.754;2023-04-25T12:36:50;16.60;;;5.22;;
64615;SDS011;51027;42.162;24.754;2023-04-25T12:39:17;15.35;;;4.95;;
64615;SDS011;51027;42.162;24.754;2023-04-25T12:41:44;14.27;;;4.80;;
64615;SDS011;51027;42.162;24.754;2023-04-25T12:44:11;12.65;;;4.32;;
64615;SDS011;51027;42.162;24.754;2023-04-25T12:46:37;12.55;;;5.10;;
64615;SDS011;51027;42.162;24.754;2023-04-25T12:49:03;13.07;;;4.93;;
64615;SDS011;51027;42.162;24.754;2023-04-25T12:51:29;13.40;;;4.53;;
64615;SDS011;51027;42.162;24.754;2023-04-25T12:53:57;15.48;;;4.75;;
64615;SDS011;51027;42.162;24.754;2023-04-25T12:56:23;12.10;;;4.70;;
64615;SDS011;51027;42.162;24.754;2023-04-25T12:58:49;13.48;;;4.38;;
64615;SDS011;51027;42.162;24.754;2023-04-25T13:01:15;12.07;;;4.25;;
64615;SDS011;51027;42.162;24.754;2023-04-25T13:03:40;15.10;;;5.10;;
64615;SDS011;51027;42.162;24.754;2023-04-25T13:06:09;11.93;;;3.90;;
64615;SDS011;51027;42.162;24.754;2023-04-25T13:08:34;12.87;;;4.10;;
64615;SDS011;51027;42.162;24.754;2023-04-25T13:11:01;12.82;;;4.05;;
64615;SDS011;51027;42.162;24.754;2023-04-25T13:13:27;11.00;;;4.03;;
64615;SDS011;51027;42.162;24.754;2023-04-25T13:15:53;14.00;;;4.57;;
64615;SDS011;51027;42.162;24.754;2023-04-25T13:18:19;11.00;;;3.90;;
64615;SDS011;51027;42.162;24.754;2023-04-25T13:20:44;9.35;;;3.38;;
64615;SDS011;51027;42.162;24.754;2023-04-25T13:23:11;10.77;;;3.55;;
64615;SDS011;51027;42.162;24.754;2023-04-25T13:25:36;9.20;;;3.60;;
64615;SDS011;51027;42.162;24.754;2023-04-25T13:28:02;9.35;;;3.55;;
64615;SDS011;51027;42.162;24.754;2023-04-25T13:30:27;12.00;;;3.58;;
64615;SDS011;51027;42.162;24.754;2023-04-25T13:32:53;8.45;;;3.30;;
64615;SDS011;51027;42.162;24.754;2023-04-25T13:35:21;8.65;;;3.25;;
64615;SDS011;51027;42.162;24.754;2023-04-25T13:37:47;9.50;;;3.30;;
64615;SDS011;51027;42.162;24.754;2023-04-25T13:40:12;10.52;;;3.20;;
64615;SDS011;51027;42.162;24.754;2023-04-25T13:42:38;11.05;;;3.58;;
64615;SDS011;51027;42.162;24.754;2023-04-25T13:45:04;12.45;;;4.03;;
64615;SDS011;51027;42.162;24.754;2023-04-25T13:47:30;12.68;;;4.35;;
64615;SDS011;51027;42.162;24.754;2023-04-25T13:49:56;10.68;;;3.45;;
64615;SDS011;51027;42.162;24.754;2023-04-25T13:52:22;12.38;;;3.80;;
64615;SDS011;51027;42.162;24.754;2023-04-25T13:54:49;10.77;;;3.78;;
64615;SDS011;51027;42.162;24.754;2023-04-25T13:57:15;13.70;;;3.80;;
64615;SDS011;51027;42.162;24.754;2023-04-25T13:59:42;13.30;;;3.70;;
64615;SDS011;51027;42.162;24.754;2023-04-25T14:02:07;12.90;;;3.95;;
64615;SDS011;51027;42.162;24.754;2023-04-25T14:04:33;7.07;;;2.83;;
64615;SDS011;51027;42.162;24.754;2023-04-25T14:06:58;7.18;;;2.67;;
64615;SDS011;51027;42.162;24.754;2023-04-25T14:09:24;6.93;;;2.85;;
64615;SDS011;51027;42.162;24.754;2023-04-25T14:11:52;8.23;;;3.17;;
64615;SDS011;51027;42.162;24.754;2023-04-25T14:14:18;6.35;;;2.70;;
64615;SDS011;51027;42.162;24.754;2023-04-25T14:16:44;8.13;;;2.85;;
64615;SDS011;51027;42.162;24.754;2023-04-25T14:19:09;6.85;;;2.60;;
64615;SDS011;51027;42.162;24.754;2023-04-25T14:21:35;7.60;;;2.92;;
64615;SDS011;51027;42.162;24.754;2023-04-25T14:24:00;11.52;;;3.38;;
64615;SDS011;51027;42.162;24.754;2023-04-25T14:26:26;11.23;;;4.28;;
64615;SDS011;51027;42.162;24.754;2023-04-25T14:28:51;5.07;;;2.63;;
64615;SDS011;51027;42.162;24.754;2023-04-25T14:31:17;7.38;;;3.00;;
64615;SDS011;51027;42.162;24.754;2023-04-25T14:33:43;7.53;;;2.92;;
64615;SDS011;51027;42.162;24.754;2023-04-25T14:36:09;4.13;;;2.50;;